Humidity-temperature Sensor

Selected Measurement Type: Air Temperature

 
Air Temperature [°C]     6 entries per hour
Showing data from 11/30/2023 (00:00:00 Z) to 11/23/2023 (00:01:00 Z)
Previous Next [ Day | 3-Days | 7-Days ]
First Last
Prev [ Day | 3-Days | 7-Days ] Next
First Last

Start Time:     :
End Time:     :     
Time (in GMT) :00 :50 :40 :30 :20 :10
Previous Next [ Day | 3-Days | 7-Days ]
First Last
Prev [ Day | 3-Days | 7-Days ] Next
First Last


123 => good data
MM => data is determined as missing
-- => data not received/configured
Back to Top Back to Top
11/30/2023 00:00 to 23:10 25.98 25.52 26.04 25.95 25.96 25.75
11/29/2023 23:00 to 22:10 25.85 25.49 25.50 25.34 25.14 25.10
11/29/2023 22:00 to 21:10 24.97 25.13 25.14 25.60 25.56 25.60
11/29/2023 21:00 to 20:10 25.49 25.90 25.84 25.80 25.69 25.67
11/29/2023 20:00 to 19:10 25.58 25.51 25.40 25.60 25.55 25.45
11/29/2023 19:00 to 18:10 25.50 25.47 25.48 25.52 25.44 25.40
11/29/2023 18:00 to 17:10 25.58 25.72 25.65 25.72 25.68 25.74
11/29/2023 17:00 to 16:10 25.85 25.79 25.51 25.63 25.55 25.58
11/29/2023 16:00 to 15:10 25.55 25.55 25.43 25.44 25.44 25.55
11/29/2023 15:00 to 14:10 25.46 25.27 25.51 25.58 25.86 25.63
11/29/2023 14:00 to 13:10 25.43 25.75 25.78 25.72 25.71 25.77
11/29/2023 13:00 to 12:10 25.58 25.63 25.62 25.67 25.71 25.84
11/29/2023 12:00 to 11:10 25.90 25.47 25.60 25.64 25.59 25.58
11/29/2023 11:00 to 10:10 25.68 25.56 25.69 25.61 25.60 25.58
11/29/2023 10:00 to 9:10 25.65 25.63 25.65 25.54 25.53 25.71
11/29/2023 09:00 to 8:10 25.49 25.67 25.53 25.72 25.61 25.60
11/29/2023 08:00 to 7:10 25.82 25.93 25.72 25.59 25.49 25.63
11/29/2023 07:00 to 6:10 25.79 25.68 25.77 25.77 25.67 25.76
11/29/2023 06:00 to 5:10 25.61 25.76 25.62 25.61 25.20 25.70
11/29/2023 05:00 to 4:10 25.25 25.03 25.66 25.32 25.17 25.08
11/29/2023 04:00 to 3:10 25.05 25.44 25.81 25.76 25.76 25.79
11/29/2023 03:00 to 2:10 25.72 25.78 25.71 25.75 25.55 25.71
11/29/2023 02:00 to 1:10 25.78 25.61 25.63 25.83 25.53 25.63
11/29/2023 01:00 to 0:10 25.67 25.61 25.56 25.64 25.69 25.79
11/29/2023 00:00 to 23:10 25.51 25.59 25.63 25.78 25.67 25.88
11/28/2023 23:00 to 22:10 25.73 25.76 25.78 25.78 25.68 25.88
11/28/2023 22:00 to 21:10 25.62 25.75 25.74 25.70 25.54 25.53
11/28/2023 21:00 to 20:10 25.60 25.46 25.68 25.58 25.69 25.51
11/28/2023 20:00 to 19:10 25.63 25.66 25.74 25.68 25.66 25.62
11/28/2023 19:00 to 18:10 25.64 25.63 25.73 25.70 25.60 25.65
11/28/2023 18:00 to 17:10 25.56 25.57 25.67 25.48 25.67 25.66
11/28/2023 17:00 to 16:10 25.57 25.69 25.58 25.73 25.47 25.65
11/28/2023 16:00 to 15:10 25.56 25.57 25.51 25.65 25.60 25.75
11/28/2023 15:00 to 14:10 25.54 25.74 25.67 25.61 25.67 25.51
11/28/2023 14:00 to 13:10 25.51 25.61 25.42 25.42 25.38 25.18
11/28/2023 13:00 to 12:10 25.38 25.21 25.26 25.23 25.10 25.14
11/28/2023 12:00 to 11:10 25.19 25.06 25.31 25.15 25.15 25.20
11/28/2023 11:00 to 10:10 25.33 25.30 25.33 25.38 25.23 25.36
11/28/2023 10:00 to 9:10 25.41 25.23 25.35 25.31 25.42 25.60
11/28/2023 09:00 to 8:10 25.37 25.52 25.54 25.64 25.74 25.39
11/28/2023 08:00 to 7:10 25.71 25.48 25.38 25.53 25.42 25.42
11/28/2023 07:00 to 6:10 25.47 25.41 25.37 25.52 25.44 25.40
11/28/2023 06:00 to 5:10 25.46 25.56 25.50 25.47 25.64 25.34
11/28/2023 05:00 to 4:10 25.59 25.64 25.41 25.44 25.54 25.46
11/28/2023 04:00 to 3:10 25.65 25.66 25.51 25.60 25.49 25.61
11/28/2023 03:00 to 2:10 25.60 25.47 25.64 25.60 25.58 25.70
11/28/2023 02:00 to 1:10 25.55 25.56 25.65 25.54 25.56 25.51
11/28/2023 01:00 to 0:10 25.63 25.72 25.60 25.80 25.79 25.75
11/28/2023 00:00 to 23:10 25.84 25.83 25.86 25.77 25.74 25.68
11/27/2023 23:00 to 22:10 25.90 25.60 25.61 25.81 25.67 25.67
11/27/2023 22:00 to 21:10 25.46 25.49 25.69 25.49 25.55 25.64
11/27/2023 21:00 to 20:10 25.47 25.53 25.42 25.50 25.36 25.40
11/27/2023 20:00 to 19:10 25.52 25.54 25.52 25.55 25.56 25.46
11/27/2023 19:00 to 18:10 25.52 25.60 25.61 25.48 25.57 25.67
11/27/2023 18:00 to 17:10 25.79 25.69 25.62 25.70 25.70 25.77
11/27/2023 17:00 to 16:10 25.88 25.81 25.72 25.73 25.93 25.80
11/27/2023 16:00 to 15:10 25.85 25.66 25.83 25.74 25.47 25.41
11/27/2023 15:00 to 14:10 25.51 25.37 25.10 25.07 25.55 25.57
11/27/2023 14:00 to 13:10 25.48 25.43 25.46 25.42 25.26 25.19
11/27/2023 13:00 to 12:10 25.15 24.79 24.86 24.82 24.86 24.91
11/27/2023 12:00 to 11:10 24.90 24.92 25.02 25.22 25.22 25.14
11/27/2023 11:00 to 10:10 25.13 24.60 24.80 24.73 24.63 24.35
11/27/2023 10:00 to 9:10 24.49 25.02 25.39 25.60 25.74 25.49
11/27/2023 09:00 to 8:10 25.64 25.53 25.49 25.54 25.55 25.39
11/27/2023 08:00 to 7:10 25.52 25.41 25.67 25.54 25.56 25.69
11/27/2023 07:00 to 6:10 25.57 25.33 25.20 25.47 25.66 25.54
11/27/2023 06:00 to 5:10 25.55 25.68 25.62 25.62 25.81 25.73
11/27/2023 05:00 to 4:10 25.66 25.75 25.73 25.64 25.68 25.59
11/27/2023 04:00 to 3:10 25.58 25.60 25.60 25.63 25.34 25.41
11/27/2023 03:00 to 2:10 25.35 25.33 25.27 25.42 25.46 25.48
11/27/2023 02:00 to 1:10 25.43 25.29 25.62 25.54 25.52 25.63
11/27/2023 01:00 to 0:10 25.66 25.64 25.70 25.71 25.72 25.75
11/27/2023 00:00 to 23:10 25.66 25.51 25.26 25.35 25.53 25.87
11/26/2023 23:00 to 22:10 25.88 25.88 25.67 25.85 25.64 25.78
11/26/2023 22:00 to 21:10 25.76 25.68 25.58 25.75 25.67 25.62
11/26/2023 21:00 to 20:10 25.50 25.53 25.65 25.50 25.53 25.63
11/26/2023 20:00 to 19:10 25.58 25.68 25.55 25.63 25.61 25.77
11/26/2023 19:00 to 18:10 25.63 25.59 25.56 25.54 25.66 25.55
11/26/2023 18:00 to 17:10 25.63 25.66 25.74 25.68 25.82 25.81
11/26/2023 17:00 to 16:10 25.75 25.76 25.64 25.62 25.65 25.71
11/26/2023 16:00 to 15:10 25.59 25.53 25.50 25.46 25.52 25.53
11/26/2023 15:00 to 14:10 25.33 25.52 25.43 25.54 25.33 25.29
11/26/2023 14:00 to 13:10 25.62 25.28 25.39 25.50 25.34 25.24
11/26/2023 13:00 to 12:10 25.29 25.39 25.24 25.31 25.32 25.19
11/26/2023 12:00 to 11:10 25.18 25.26 25.19 25.12 25.20 25.25
11/26/2023 11:00 to 10:10 25.27 25.06 25.20 25.15 25.21 25.02
11/26/2023 10:00 to 9:10 25.20 25.11 25.19 25.21 25.08 25.29
11/26/2023 09:00 to 8:10 25.10 25.17 25.14 25.22 25.23 25.35
11/26/2023 08:00 to 7:10 25.26 25.37 25.33 25.37 25.27 25.30
11/26/2023 07:00 to 6:10 25.45 25.42 25.43 25.31 25.26 25.40
11/26/2023 06:00 to 5:10 25.22 25.30 25.30 25.42 25.46 25.48
11/26/2023 05:00 to 4:10 25.46 25.48 25.43 25.36 25.45 25.43
11/26/2023 04:00 to 3:10 25.52 25.49 25.47 25.63 25.32 25.40
11/26/2023 03:00 to 2:10 25.47 25.50 25.45 25.36 25.47 25.53
11/26/2023 02:00 to 1:10 25.51 25.44 25.47 25.47 25.44 25.33
11/26/2023 01:00 to 0:10 25.50 25.56 25.47 25.59 25.78 25.77
11/26/2023 00:00 to 23:10 25.72 25.85 25.70 25.53 25.59 25.52
11/25/2023 23:00 to 22:10 25.57 25.58 25.65 25.63 25.56 25.47
11/25/2023 22:00 to 21:10 25.57 25.54 25.59 25.49 25.59 25.42
11/25/2023 21:00 to 20:10 25.42 25.34 25.53 25.41 25.51 25.41
11/25/2023 20:00 to 19:10 25.38 25.41 25.40 25.31 25.48 25.43
11/25/2023 19:00 to 18:10 25.36 25.37 25.53 25.49 25.37 25.49
11/25/2023 18:00 to 17:10 25.43 25.48 25.48 25.60 25.49 25.59
11/25/2023 17:00 to 16:10 25.48 25.57 25.65 25.40 25.45 25.54
11/25/2023 16:00 to 15:10 25.68 25.59 25.59 25.64 25.62 25.49
11/25/2023 15:00 to 14:10 25.42 25.48 25.50 25.51 25.52 25.35
11/25/2023 14:00 to 13:10 25.12 25.39 25.38 25.38 25.45 25.24
11/25/2023 13:00 to 12:10 25.17 25.12 25.30 25.29 25.34 25.35
11/25/2023 12:00 to 11:10 25.31 25.21 25.30 25.24 25.25 25.23
11/25/2023 11:00 to 10:10 25.21 25.30 25.16 25.16 25.12 25.45
11/25/2023 10:00 to 9:10 25.09 25.30 25.31 25.35 25.31 25.37
11/25/2023 09:00 to 8:10 25.45 25.37 25.41 25.32 25.36 25.38
11/25/2023 08:00 to 7:10 25.43 25.43 25.45 25.27 25.33 25.37
11/25/2023 07:00 to 6:10 25.43 25.38 25.43 25.51 25.37 25.42
11/25/2023 06:00 to 5:10 25.32 25.46 25.37 25.50 25.43 25.42
11/25/2023 05:00 to 4:10 25.46 25.53 25.37 25.60 25.54 25.59
11/25/2023 04:00 to 3:10 25.39 25.56 25.48 25.54 25.52 25.49
11/25/2023 03:00 to 2:10 25.48 25.45 25.54 25.53 25.54 25.59
11/25/2023 02:00 to 1:10 25.52 25.48 25.55 25.62 25.41 25.55
11/25/2023 01:00 to 0:10 25.55 25.52 25.81 25.64 25.69 25.74
11/25/2023 00:00 to 23:10 25.80 25.82 25.84 25.94 25.90 25.89
11/24/2023 23:00 to 22:10 25.89 25.82 25.87 25.76 25.86 25.85
11/24/2023 22:00 to 21:10 25.69 25.78 25.90 25.69 25.78 25.85
11/24/2023 21:00 to 20:10 25.76 25.73 25.79 25.74 25.65 25.69
11/24/2023 20:00 to 19:10 25.77 25.87 25.74 25.85 25.81 25.80
11/24/2023 19:00 to 18:10 25.68 25.64 25.62 25.63 25.73 25.76
11/24/2023 18:00 to 17:10 25.64 25.64 25.72 25.81 25.61 25.67
11/24/2023 17:00 to 16:10 25.97 26.01 25.90 25.82 25.98 25.85
11/24/2023 16:00 to 15:10 25.85 25.75 25.88 25.91 25.83 25.85
11/24/2023 15:00 to 14:10 25.79 25.56 25.46 25.58 25.54 25.76
11/24/2023 14:00 to 13:10 25.57 25.61 25.53 25.46 25.33 25.42
11/24/2023 13:00 to 12:10 25.31 25.22 25.18 25.18 25.35 25.14
11/24/2023 12:00 to 11:10 25.30 25.27 25.31 25.39 25.33 25.23
11/24/2023 11:00 to 10:10 25.26 25.24 25.33 25.19 25.19 25.24
11/24/2023 10:00 to 9:10 25.18 25.21 25.23 25.24 25.28 25.21
11/24/2023 09:00 to 8:10 25.43 25.24 25.22 25.31 25.38 25.32
11/24/2023 08:00 to 7:10 25.34 25.61 25.48 25.48 25.56 25.47
11/24/2023 07:00 to 6:10 25.32 25.36 25.50 25.54 25.67 25.72
11/24/2023 06:00 to 5:10 25.57 25.65 25.56 25.53 25.58 25.50
11/24/2023 05:00 to 4:10 25.72 25.63 25.60 25.58 25.56 25.60
11/24/2023 04:00 to 3:10 25.75 25.62 25.54 25.59 25.65 25.64
11/24/2023 03:00 to 2:10 25.58 25.70 25.68 25.73 25.70 25.54
11/24/2023 02:00 to 1:10 25.54 25.64 25.62 25.67 25.70 25.59
11/24/2023 01:00 to 0:10 25.68 25.84 25.82 25.93 25.98 26.01
11/24/2023 00:00 to 23:10 26.15 26.10 25.97 26.01 26.12 26.03
11/23/2023 23:00 to 22:10 26.19 26.09 25.96 26.06 25.94 25.94
11/23/2023 22:00 to 21:10 25.86 25.85 26.00 25.79 25.76 25.73
11/23/2023 21:00 to 20:10 25.82 25.75 25.73 25.70 25.67 25.78
11/23/2023 20:00 to 19:10 25.87 25.74 25.84 25.77 25.79 25.91
11/23/2023 19:00 to 18:10 25.84 25.85 25.90 25.81 25.80 26.00
11/23/2023 18:00 to 17:10 25.87 25.93 25.99 26.11 25.91 25.92
11/23/2023 17:00 to 16:10 25.95 25.90 25.99 25.89 26.00 25.98
11/23/2023 16:00 to 15:10 25.94 26.02 26.12 25.99 26.09 26.00
11/23/2023 15:00 to 14:10 26.03 25.81 25.73 25.76 25.65 25.71
11/23/2023 14:00 to 13:10 26.14 25.73 25.91 25.65 25.29 25.36
11/23/2023 13:00 to 12:10 25.43 25.27 25.30 25.46 25.20 25.23
11/23/2023 12:00 to 11:10 25.26 25.25 25.37 25.24 25.12 25.16
11/23/2023 11:00 to 10:10 25.14 25.26 25.15 25.14 25.25 25.29
11/23/2023 10:00 to 9:10 25.12 25.20 25.29 25.20 25.18 25.26
11/23/2023 09:00 to 8:10 25.38 25.19 25.19 25.25 25.13 25.23
11/23/2023 08:00 to 7:10 25.30 25.31 25.36 25.35 25.30 25.59
11/23/2023 07:00 to 6:10 25.44 25.37 25.47 25.51 25.45 25.72
11/23/2023 06:00 to 5:10 25.43 25.60 25.70 25.57 25.63 25.61
11/23/2023 05:00 to 4:10 25.82 25.64 25.77 25.73 25.78 25.74
11/23/2023 04:00 to 3:10 25.69 25.73 25.74 25.81 25.70 25.72
11/23/2023 03:00 to 2:10 25.59 25.85 25.66 25.62 25.55 25.67
11/23/2023 02:00 to 1:10 25.77 25.86 25.72 25.74 25.79 25.62
11/23/2023 01:00 to 0:10 25.76 25.72 25.80 25.94 25.91 26.03